General Aviation Weather

Text Reports

Enter one or more of the following location identifiers separated by a space:

Zip Code, Four-Character ICAO or Three-Character IATA airport codes.

METAR - Aviation Routine Weather Report
KXBP - Bridgeport, Texas
Updated at 2:35 PM GMT on December 21, 2014 (8:35 AM CST):
METAR KXBP 211435Z AUTO 16008KT 7SM OVC037 09/08 A3007 RMK AO2 T00860079
TAF - Terminal Area Forecast
KXBP - Bridgeport, Texas
Updated at 2:35 PM GMT on December 21, 2014 (8:35 AM CST):
No TAF is currently available for this location.
Decoded:
No decoded TAF is available.
PIREP - Pilot Weather Report
KXBP - Bridgeport, Texas
Updated at 2:35 PM GMT on December 21, 2014 (8:35 AM CST):
No PIREP is currently available for this location.
AIRMET - Airmens Meteorological Information
KXBP - Bridgeport, Texas
Updated at 2:35 PM GMT on December 21, 2014 (8:35 AM CST):
No AIRMET is currently available for this location.
SIGMET - Significant Meteorological Information
KXBP - Bridgeport, Texas
Updated at 2:35 PM GMT on December 21, 2014 (8:35 AM CST):
No SIGMET is currently available for this location.
NOTAM - Notice to Airmen
KXBP - Bridgeport, Texas
Updated at 2:35 PM GMT on December 21, 2014 (8:35 AM CST):
No NOTAM is currently available for this location.
Forecast Area
KXBP - Bridgeport, Texas
Updated at 2:35 PM GMT on December 21, 2014 (8:35 AM CST):
No NOTAM is currently available for this location.
Aviation Weather Maps